sensor_id;sensor_type;location;lat;lon;timestamp;P1;durP1;ratioP1;P2;durP2;ratioP2
23722;SDS011;12042;52.136;5.584;2022-08-11T05:48:51;6.90;;;6.15;;
23722;SDS011;12042;52.136;5.584;2022-08-11T05:51:42;6.55;;;5.80;;
23722;SDS011;12042;52.136;5.584;2022-08-11T05:54:28;13.10;;;6.28;;
23722;SDS011;12042;52.136;5.584;2022-08-11T05:57:19;7.05;;;6.28;;
23722;SDS011;12042;52.136;5.584;2022-08-11T05:59:47;7.00;;;6.30;;
23722;SDS011;12042;52.136;5.584;2022-08-11T06:02:14;9.20;;;6.10;;
23722;SDS011;12042;52.136;5.584;2022-08-11T06:04:40;6.38;;;5.88;;
23722;SDS011;12042;52.136;5.584;2022-08-11T06:07:07;6.68;;;6.03;;
23722;SDS011;12042;52.136;5.584;2022-08-11T06:14:44;5.88;;;5.47;;
23722;SDS011;12042;52.136;5.584;2022-08-11T06:17:13;6.55;;;6.03;;
23722;SDS011;12042;52.136;5.584;2022-08-11T06:19:46;6.45;;;6.00;;
23722;SDS011;12042;52.136;5.584;2022-08-11T06:22:12;6.15;;;5.55;;
23722;SDS011;12042;52.136;5.584;2022-08-11T06:24:50;7.22;;;5.35;;
23722;SDS011;12042;52.136;5.584;2022-08-11T06:27:21;5.65;;;5.22;;
23722;SDS011;12042;52.136;5.584;2022-08-11T06:29:49;9.38;;;5.22;;
23722;SDS011;12042;52.136;5.584;2022-08-11T06:32:15;5.72;;;5.38;;
23722;SDS011;12042;52.136;5.584;2022-08-11T06:35:02;5.07;;;4.68;;
23722;SDS011;12042;52.136;5.584;2022-08-11T06:37:43;6.00;;;4.97;;
23722;SDS011;12042;52.136;5.584;2022-08-11T06:40:22;6.35;;;4.97;;
23722;SDS011;12042;52.136;5.584;2022-08-11T06:46:01;6.55;;;4.90;;
23722;SDS011;12042;52.136;5.584;2022-08-11T06:48:32;6.82;;;4.82;;
23722;SDS011;12042;52.136;5.584;2022-08-11T06:50:59;5.50;;;4.40;;
23722;SDS011;12042;52.136;5.584;2022-08-11T06:53:38;5.10;;;4.03;;
23722;SDS011;12042;52.136;5.584;2022-08-11T06:56:09;6.55;;;5.00;;
23722;SDS011;12042;52.136;5.584;2022-08-11T06:59:09;4.35;;;4.00;;
23722;SDS011;12042;52.136;5.584;2022-08-11T07:05:09;5.28;;;3.92;;
23722;SDS011;12042;52.136;5.584;2022-08-11T07:14:24;6.60;;;3.88;;
23722;SDS011;12042;52.136;5.584;2022-08-11T07:17:13;6.75;;;4.22;;
23722;SDS011;12042;52.136;5.584;2022-08-11T07:19:42;7.53;;;3.70;;
23722;SDS011;12042;52.136;5.584;2022-08-11T07:22:35;9.07;;;3.63;;
23722;SDS011;12042;52.136;5.584;2022-08-11T07:25:21;7.78;;;3.70;;
23722;SDS011;12042;52.136;5.584;2022-08-11T07:28:14;5.18;;;3.30;;
23722;SDS011;12042;52.136;5.584;2022-08-11T07:31:06;6.90;;;3.30;;
23722;SDS011;12042;52.136;5.584;2022-08-11T07:33:49;4.70;;;3.33;;
23722;SDS011;12042;52.136;5.584;2022-08-11T07:36:18;4.85;;;3.30;;
23722;SDS011;12042;52.136;5.584;2022-08-11T07:38:47;7.25;;;3.60;;
23722;SDS011;12042;52.136;5.584;2022-08-11T07:41:19;11.15;;;3.40;;
23722;SDS011;12042;52.136;5.584;2022-08-11T07:43:49;6.25;;;3.60;;
23722;SDS011;12042;52.136;5.584;2022-08-11T07:46:19;3.35;;;3.10;;
23722;SDS011;12042;52.136;5.584;2022-08-11T07:49:06;5.25;;;3.08;;
23722;SDS011;12042;52.136;5.584;2022-08-11T07:51:52;4.10;;;2.72;;
23722;SDS011;12042;52.136;5.584;2022-08-11T07:54:37;4.95;;;2.70;;
23722;SDS011;12042;52.136;5.584;2022-08-11T07:57:04;6.88;;;2.90;;
23722;SDS011;12042;52.136;5.584;2022-08-11T07:59:51;5.65;;;2.30;;
23722;SDS011;12042;52.136;5.584;2022-08-11T08:02:37;4.70;;;2.45;;
23722;SDS011;12042;52.136;5.584;2022-08-11T08:05:23;4.18;;;2.33;;
23722;SDS011;12042;52.136;5.584;2022-08-11T08:08:08;5.10;;;2.55;;
23722;SDS011;12042;52.136;5.584;2022-08-11T08:10:53;2.60;;;2.30;;
23722;SDS011;12042;52.136;5.584;2022-08-11T08:13:40;3.53;;;2.40;;
23722;SDS011;12042;52.136;5.584;2022-08-11T08:16:25;4.30;;;2.20;;
23722;SDS011;12042;52.136;5.584;2022-08-11T08:19:12;3.72;;;2.50;;
23722;SDS011;12042;52.136;5.584;2022-08-11T08:21:39;4.80;;;2.25;;
23722;SDS011;12042;52.136;5.584;2022-08-11T08:24:06;5.68;;;2.28;;
23722;SDS011;12042;52.136;5.584;2022-08-11T08:26:32;4.20;;;2.55;;
23722;SDS011;12042;52.136;5.584;2022-08-11T08:29:16;4.82;;;2.30;;
23722;SDS011;12042;52.136;5.584;2022-08-11T08:32:02;5.43;;;2.20;;
23722;SDS011;12042;52.136;5.584;2022-08-11T08:34:29;4.10;;;2.10;;
23722;SDS011;12042;52.136;5.584;2022-08-11T08:36:55;2.22;;;2.03;;
23722;SDS011;12042;52.136;5.584;2022-08-11T08:39:21;5.45;;;2.33;;
23722;SDS011;12042;52.136;5.584;2022-08-11T08:41:54;5.68;;;2.30;;
23722;SDS011;12042;52.136;5.584;2022-08-11T08:44:22;6.65;;;2.15;;
23722;SDS011;12042;52.136;5.584;2022-08-11T08:46:51;3.70;;;2.30;;
23722;SDS011;12042;52.136;5.584;2022-08-11T08:49:44;4.00;;;2.10;;
23722;SDS011;12042;52.136;5.584;2022-08-11T08:52:17;7.13;;;2.67;;
23722;SDS011;12042;52.136;5.584;2022-08-11T08:54:47;3.55;;;2.30;;
23722;SDS011;12042;52.136;5.584;2022-08-11T08:57:18;4.75;;;2.60;;
23722;SDS011;12042;52.136;5.584;2022-08-11T08:59:46;3.72;;;2.20;;
23722;SDS011;12042;52.136;5.584;2022-08-11T09:02:13;4.50;;;2.30;;
23722;SDS011;12042;52.136;5.584;2022-08-11T09:04:42;3.15;;;2.60;;
23722;SDS011;12042;52.136;5.584;2022-08-11T09:07:10;2.65;;;2.25;;
23722;SDS011;12042;52.136;5.584;2022-08-11T09:09:47;2.15;;;1.92;;
23722;SDS011;12042;52.136;5.584;2022-08-11T09:12:20;3.42;;;2.13;;
23722;SDS011;12042;52.136;5.584;2022-08-11T09:14:50;3.03;;;2.35;;
23722;SDS011;12042;52.136;5.584;2022-08-11T09:17:38;4.50;;;2.33;;
23722;SDS011;12042;52.136;5.584;2022-08-11T09:20:12;2.25;;;2.15;;
23722;SDS011;12042;52.136;5.584;2022-08-11T09:22:41;4.43;;;2.30;;
23722;SDS011;12042;52.136;5.584;2022-08-11T09:25:28;3.90;;;2.30;;
23722;SDS011;12042;52.136;5.584;2022-08-11T09:28:14;5.65;;;2.35;;
23722;SDS011;12042;52.136;5.584;2022-08-11T09:30:41;4.32;;;2.20;;
23722;SDS011;12042;52.136;5.584;2022-08-11T09:33:08;3.35;;;2.30;;
23722;SDS011;12042;52.136;5.584;2022-08-11T09:35:37;2.45;;;2.05;;
23722;SDS011;12042;52.136;5.584;2022-08-11T09:38:06;3.58;;;2.00;;
23722;SDS011;12042;52.136;5.584;2022-08-11T09:40:53;4.78;;;2.08;;
23722;SDS011;12042;52.136;5.584;2022-08-11T09:43:20;2.83;;;2.17;;
23722;SDS011;12042;52.136;5.584;2022-08-11T09:46:05;2.72;;;2.17;;
23722;SDS011;12042;52.136;5.584;2022-08-11T09:48:39;3.97;;;1.88;;
23722;SDS011;12042;52.136;5.584;2022-08-11T09:51:08;2.47;;;1.90;;
23722;SDS011;12042;52.136;5.584;2022-08-11T09:53:35;6.65;;;1.90;;
23722;SDS011;12042;52.136;5.584;2022-08-11T09:56:04;3.65;;;1.90;;
23722;SDS011;12042;52.136;5.584;2022-08-11T09:58:50;2.83;;;1.80;;
23722;SDS011;12042;52.136;5.584;2022-08-11T10:01:16;2.83;;;1.77;;
23722;SDS011;12042;52.136;5.584;2022-08-11T10:04:25;6.18;;;2.00;;
23722;SDS011;12042;52.136;5.584;2022-08-11T10:06:48;5.72;;;2.10;;
23722;SDS011;12042;52.136;5.584;2022-08-11T10:09:26;2.65;;;1.80;;
23722;SDS011;12042;52.136;5.584;2022-08-11T10:12:37;3.95;;;1.83;;
23722;SDS011;12042;52.136;5.584;2022-08-11T10:15:08;1.95;;;1.80;;
23722;SDS011;12042;52.136;5.584;2022-08-11T10:17:54;2.10;;;1.90;;
23722;SDS011;12042;52.136;5.584;2022-08-11T10:20:42;5.38;;;2.10;;
23722;SDS011;12042;52.136;5.584;2022-08-11T10:23:12;1.90;;;1.80;;
23722;SDS011;12042;52.136;5.584;2022-08-11T10:25:56;2.83;;;1.90;;
23722;SDS011;12042;52.136;5.584;2022-08-11T10:28:40;3.20;;;1.90;;
23722;SDS011;12042;52.136;5.584;2022-08-11T10:31:07;2.03;;;1.92;;
23722;SDS011;12042;52.136;5.584;2022-08-11T10:33:52;2.25;;;1.63;;
23722;SDS011;12042;52.136;5.584;2022-08-11T10:36:25;2.75;;;1.70;;
23722;SDS011;12042;52.136;5.584;2022-08-11T10:38:52;4.97;;;1.70;;
23722;SDS011;12042;52.136;5.584;2022-08-11T10:41:19;3.15;;;1.98;;
23722;SDS011;12042;52.136;5.584;2022-08-11T10:44:06;1.80;;;1.70;;
23722;SDS011;12042;52.136;5.584;2022-08-11T10:46:34;2.13;;;1.58;;
23722;SDS011;12042;52.136;5.584;2022-08-11T10:49:19;2.03;;;1.75;;
23722;SDS011;12042;52.136;5.584;2022-08-11T10:51:45;3.20;;;1.55;;
23722;SDS011;12042;52.136;5.584;2022-08-11T10:54:31;2.53;;;1.65;;
23722;SDS011;12042;52.136;5.584;2022-08-11T10:57:17;4.55;;;1.60;;
23722;SDS011;12042;52.136;5.584;2022-08-11T11:00:02;3.90;;;1.60;;
23722;SDS011;12042;52.136;5.584;2022-08-11T11:02:30;2.42;;;1.35;;
23722;SDS011;12042;52.136;5.584;2022-08-11T11:05:07;1.65;;;1.55;;
23722;SDS011;12042;52.136;5.584;2022-08-11T11:07:38;1.85;;;1.75;;
23722;SDS011;12042;52.136;5.584;2022-08-11T11:10:28;2.22;;;1.80;;
23722;SDS011;12042;52.136;5.584;2022-08-11T11:12:55;3.95;;;1.70;;
23722;SDS011;12042;52.136;5.584;2022-08-11T11:15:43;3.17;;;1.80;;
23722;SDS011;12042;52.136;5.584;2022-08-11T11:18:35;1.80;;;1.70;;
23722;SDS011;12042;52.136;5.584;2022-08-11T11:21:05;3.22;;;1.25;;
23722;SDS011;12042;52.136;5.584;2022-08-11T11:23:39;2.38;;;1.55;;
23722;SDS011;12042;52.136;5.584;2022-08-11T11:37:34;2.08;;;1.60;;
23722;SDS011;12042;52.136;5.584;2022-08-11T11:40:07;1.98;;;1.40;;
23722;SDS011;12042;52.136;5.584;2022-08-11T11:42:35;7.25;;;1.40;;
23722;SDS011;12042;52.136;5.584;2022-08-11T11:45:01;4.53;;;1.50;;
23722;SDS011;12042;52.136;5.584;2022-08-11T11:47:29;1.50;;;1.40;;
23722;SDS011;12042;52.136;5.584;2022-08-11T11:49:55;4.63;;;1.60;;
23722;SDS011;12042;52.136;5.584;2022-08-11T11:52:21;1.75;;;1.40;;
23722;SDS011;12042;52.136;5.584;2022-08-11T11:54:50;1.73;;;1.55;;
23722;SDS011;12042;52.136;5.584;2022-08-11T11:57:19;2.45;;;1.38;;
23722;SDS011;12042;52.136;5.584;2022-08-11T12:00:05;1.55;;;1.30;;
23722;SDS011;12042;52.136;5.584;2022-08-11T12:03:00;1.40;;;1.33;;
23722;SDS011;12042;52.136;5.584;2022-08-11T12:05:27;2.90;;;1.50;;
23722;SDS011;12042;52.136;5.584;2022-08-11T12:07:55;2.03;;;1.10;;
23722;SDS011;12042;52.136;5.584;2022-08-11T12:10:37;2.22;;;1.42;;
23722;SDS011;12042;52.136;5.584;2022-08-11T12:13:08;5.47;;;1.50;;
23722;SDS011;12042;52.136;5.584;2022-08-11T12:15:57;3.53;;;1.25;;
23722;SDS011;12042;52.136;5.584;2022-08-11T12:18:27;1.50;;;1.30;;
23722;SDS011;12042;52.136;5.584;2022-08-11T12:21:03;2.15;;;1.40;;
23722;SDS011;12042;52.136;5.584;2022-08-11T12:23:30;1.35;;;1.30;;
23722;SDS011;12042;52.136;5.584;2022-08-11T12:26:16;1.60;;;1.50;;
23722;SDS011;12042;52.136;5.584;2022-08-11T12:29:01;2.58;;;1.40;;
23722;SDS011;12042;52.136;5.584;2022-08-11T12:31:29;3.70;;;1.42;;
23722;SDS011;12042;52.136;5.584;2022-08-11T12:34:00;4.18;;;1.75;;
23722;SDS011;12042;52.136;5.584;2022-08-11T12:36:32;2.65;;;1.30;;
23722;SDS011;12042;52.136;5.584;2022-08-11T12:39:02;2.80;;;1.48;;
23722;SDS011;12042;52.136;5.584;2022-08-11T12:41:32;3.10;;;1.60;;
23722;SDS011;12042;52.136;5.584;2022-08-11T12:44:18;1.98;;;1.40;;
23722;SDS011;12042;52.136;5.584;2022-08-11T12:47:05;4.97;;;1.33;;
23722;SDS011;12042;52.136;5.584;2022-08-11T12:49:34;3.05;;;1.20;;
23722;SDS011;12042;52.136;5.584;2022-08-11T12:52:25;2.65;;;1.23;;
23722;SDS011;12042;52.136;5.584;2022-08-11T12:57:25;2.65;;;1.40;;
23722;SDS011;12042;52.136;5.584;2022-08-11T13:00:25;3.65;;;1.60;;
23722;SDS011;12042;52.136;5.584;2022-08-11T13:03:10;4.43;;;1.20;;
23722;SDS011;12042;52.136;5.584;2022-08-11T13:05:57;3.55;;;1.40;;
23722;SDS011;12042;52.136;5.584;2022-08-11T13:08:26;1.75;;;1.58;;
23722;SDS011;12042;52.136;5.584;2022-08-11T13:10:54;2.45;;;1.60;;
23722;SDS011;12042;52.136;5.584;2022-08-11T13:13:40;1.50;;;1.40;;
23722;SDS011;12042;52.136;5.584;2022-08-11T13:16:08;1.88;;;1.30;;
23722;SDS011;12042;52.136;5.584;2022-08-11T13:18:35;2.67;;;1.52;;
23722;SDS011;12042;52.136;5.584;2022-08-11T13:21:06;3.72;;;1.20;;
23722;SDS011;12042;52.136;5.584;2022-08-11T13:23:33;2.42;;;1.35;;
23722;SDS011;12042;52.136;5.584;2022-08-11T13:25:59;5.72;;;1.40;;
23722;SDS011;12042;52.136;5.584;2022-08-11T13:28:26;1.77;;;1.33;;
23722;SDS011;12042;52.136;5.584;2022-08-11T13:30:52;2.03;;;1.33;;
23722;SDS011;12042;52.136;5.584;2022-08-11T13:34:09;1.48;;;1.38;;
23722;SDS011;12042;52.136;5.584;2022-08-11T13:36:31;1.50;;;1.40;;
23722;SDS011;12042;52.136;5.584;2022-08-11T13:38:58;3.47;;;1.38;;
23722;SDS011;12042;52.136;5.584;2022-08-11T13:41:24;1.88;;;1.30;;
23722;SDS011;12042;52.136;5.584;2022-08-11T13:44:05;2.85;;;1.55;;
23722;SDS011;12042;52.136;5.584;2022-08-11T13:46:32;1.55;;;1.40;;
23722;SDS011;12042;52.136;5.584;2022-08-11T13:48:58;2.15;;;1.50;;
23722;SDS011;12042;52.136;5.584;2022-08-11T13:51:24;1.40;;;1.13;;
23722;SDS011;12042;52.136;5.584;2022-08-11T13:53:58;1.50;;;1.40;;
23722;SDS011;12042;52.136;5.584;2022-08-11T13:56:33;1.50;;;1.40;;
23722;SDS011;12042;52.136;5.584;2022-08-11T13:59:03;1.27;;;1.17;;
23722;SDS011;12042;52.136;5.584;2022-08-11T14:01:35;2.20;;;1.27;;
23722;SDS011;12042;52.136;5.584;2022-08-11T14:04:11;1.50;;;1.40;;
23722;SDS011;12042;52.136;5.584;2022-08-11T14:06:40;2.22;;;1.35;;
23722;SDS011;12042;52.136;5.584;2022-08-11T14:09:10;1.40;;;1.27;;
23722;SDS011;12042;52.136;5.584;2022-08-11T14:11:37;1.50;;;1.40;;
23722;SDS011;12042;52.136;5.584;2022-08-11T14:14:26;2.30;;;1.20;;
23722;SDS011;12042;52.136;5.584;2022-08-11T14:16:58;1.30;;;1.10;;
23722;SDS011;12042;52.136;5.584;2022-08-11T14:19:28;2.58;;;1.50;;
23722;SDS011;12042;52.136;5.584;2022-08-11T14:22:00;2.80;;;1.40;;
23722;SDS011;12042;52.136;5.584;2022-08-11T14:24:33;1.38;;;1.27;;
23722;SDS011;12042;52.136;5.584;2022-08-11T14:27:00;1.52;;;1.20;;
23722;SDS011;12042;52.136;5.584;2022-08-11T14:29:27;1.20;;;1.10;;
23722;SDS011;12042;52.136;5.584;2022-08-11T14:32:00;1.33;;;1.30;;
23722;SDS011;12042;52.136;5.584;2022-08-11T14:34:28;5.55;;;1.20;;
23722;SDS011;12042;52.136;5.584;2022-08-11T14:36:57;2.17;;;1.15;;
23722;SDS011;12042;52.136;5.584;2022-08-11T14:39:30;1.35;;;1.20;;
23722;SDS011;12042;52.136;5.584;2022-08-11T14:42:02;1.70;;;1.30;;
23722;SDS011;12042;52.136;5.584;2022-08-11T14:44:53;3.38;;;1.35;;
23722;SDS011;12042;52.136;5.584;2022-08-11T14:47:40;1.70;;;1.00;;
23722;SDS011;12042;52.136;5.584;2022-08-11T14:50:10;4.10;;;1.40;;
23722;SDS011;12042;52.136;5.584;2022-08-11T14:52:39;4.15;;;1.48;;
23722;SDS011;12042;52.136;5.584;2022-08-11T14:55:14;1.40;;;1.30;;
23722;SDS011;12042;52.136;5.584;2022-08-11T14:58:00;1.20;;;1.20;;
23722;SDS011;12042;52.136;5.584;2022-08-11T15:00:26;1.40;;;1.30;;
23722;SDS011;12042;52.136;5.584;2022-08-11T15:02:53;3.33;;;1.38;;
23722;SDS011;12042;52.136;5.584;2022-08-11T15:05:35;3.15;;;1.30;;
23722;SDS011;12042;52.136;5.584;2022-08-11T15:08:06;4.15;;;1.48;;
23722;SDS011;12042;52.136;5.584;2022-08-11T15:10:33;1.30;;;1.25;;
23722;SDS011;12042;52.136;5.584;2022-08-11T15:12:59;2.72;;;1.50;;
23722;SDS011;12042;52.136;5.584;2022-08-11T15:15:26;2.65;;;1.30;;
23722;SDS011;12042;52.136;5.584;2022-08-11T15:18:13;5.35;;;1.45;;
23722;SDS011;12042;52.136;5.584;2022-08-11T15:20:41;1.63;;;1.52;;
23722;SDS011;12042;52.136;5.584;2022-08-11T15:23:26;2.85;;;1.38;;
23722;SDS011;12042;52.136;5.584;2022-08-11T15:26:12;1.60;;;1.50;;
23722;SDS011;12042;52.136;5.584;2022-08-11T15:29:24;3.67;;;1.40;;
23722;SDS011;12042;52.136;5.584;2022-08-11T15:32:11;1.30;;;1.20;;
23722;SDS011;12042;52.136;5.584;2022-08-11T15:34:46;2.17;;;1.55;;
23722;SDS011;12042;52.136;5.584;2022-08-11T15:37:35;2.42;;;1.50;;
23722;SDS011;12042;52.136;5.584;2022-08-11T15:43:15;4.97;;;1.50;;
23722;SDS011;12042;52.136;5.584;2022-08-11T15:46:13;2.75;;;1.30;;
23722;SDS011;12042;52.136;5.584;2022-08-11T15:49:00;1.52;;;1.30;;
23722;SDS011;12042;52.136;5.584;2022-08-11T15:51:44;1.55;;;1.48;;
23722;SDS011;12042;52.136;5.584;2022-08-11T15:54:15;3.05;;;1.40;;
23722;SDS011;12042;52.136;5.584;2022-08-11T15:56:45;2.17;;;1.40;;
23722;SDS011;12042;52.136;5.584;2022-08-11T15:59:14;3.15;;;1.50;;
23722;SDS011;12042;52.136;5.584;2022-08-11T16:02:00;2.67;;;1.40;;
23722;SDS011;12042;52.136;5.584;2022-08-11T16:04:55;2.22;;;1.33;;
23722;SDS011;12042;52.136;5.584;2022-08-11T16:07:23;1.58;;;1.27;;
23722;SDS011;12042;52.136;5.584;2022-08-11T16:09:54;2.15;;;1.55;;
23722;SDS011;12042;52.136;5.584;2022-08-11T16:12:30;1.52;;;1.30;;
23722;SDS011;12042;52.136;5.584;2022-08-11T16:15:00;2.15;;;1.90;;
23722;SDS011;12042;52.136;5.584;2022-08-11T16:17:49;1.65;;;1.30;;
23722;SDS011;12042;52.136;5.584;2022-08-11T16:20:25;1.70;;;1.30;;
23722;SDS011;12042;52.136;5.584;2022-08-11T16:22:53;1.58;;;1.48;;
23722;SDS011;12042;52.136;5.584;2022-08-11T16:25:22;1.40;;;1.30;;
23722;SDS011;12042;52.136;5.584;2022-08-11T16:27:51;1.45;;;1.40;;
23722;SDS011;12042;52.136;5.584;2022-08-11T16:30:21;1.40;;;1.30;;
23722;SDS011;12042;52.136;5.584;2022-08-11T16:32:48;3.15;;;1.40;;
23722;SDS011;12042;52.136;5.584;2022-08-11T16:35:18;3.45;;;1.23;;
23722;SDS011;12042;52.136;5.584;2022-08-11T16:38:06;2.10;;;1.33;;
23722;SDS011;12042;52.136;5.584;2022-08-11T16:40:52;1.33;;;1.20;;
23722;SDS011;12042;52.136;5.584;2022-08-11T16:43:20;2.33;;;1.30;;
23722;SDS011;12042;52.136;5.584;2022-08-11T16:46:09;1.50;;;1.40;;
23722;SDS011;12042;52.136;5.584;2022-08-11T16:48:44;3.30;;;1.30;;
23722;SDS011;12042;52.136;5.584;2022-08-11T16:51:11;1.33;;;1.30;;
23722;SDS011;12042;52.136;5.584;2022-08-11T16:53:38;3.15;;;1.45;;
23722;SDS011;12042;52.136;5.584;2022-08-11T16:56:06;2.55;;;1.40;;
23722;SDS011;12042;52.136;5.584;2022-08-11T16:58:34;1.88;;;1.17;;
23722;SDS011;12042;52.136;5.584;2022-08-11T17:01:22;1.55;;;1.33;;
23722;SDS011;12042;52.136;5.584;2022-08-11T17:03:54;3.20;;;1.40;;
23722;SDS011;12042;52.136;5.584;2022-08-11T17:06:43;1.63;;;1.20;;
23722;SDS011;12042;52.136;5.584;2022-08-11T17:09:31;2.25;;;1.42;;
23722;SDS011;12042;52.136;5.584;2022-08-11T17:12:18;1.20;;;1.10;;
23722;SDS011;12042;52.136;5.584;2022-08-11T17:15:08;4.78;;;1.30;;
23722;SDS011;12042;52.136;5.584;2022-08-11T17:17:58;3.92;;;1.30;;
23722;SDS011;12042;52.136;5.584;2022-08-11T17:20:26;2.08;;;1.40;;
23722;SDS011;12042;52.136;5.584;2022-08-11T17:22:53;1.80;;;1.30;;
23722;SDS011;12042;52.136;5.584;2022-08-11T17:25:38;1.60;;;1.50;;
23722;SDS011;12042;52.136;5.584;2022-08-11T17:28:05;2.67;;;1.20;;
23722;SDS011;12042;52.136;5.584;2022-08-11T17:30:32;2.38;;;1.10;;
23722;SDS011;12042;52.136;5.584;2022-08-11T17:33:17;3.50;;;1.25;;
23722;SDS011;12042;52.136;5.584;2022-08-11T17:36:02;2.28;;;1.17;;
23722;SDS011;12042;52.136;5.584;2022-08-11T17:38:31;2.15;;;1.08;;
23722;SDS011;12042;52.136;5.584;2022-08-11T17:40:58;2.20;;;1.00;;
23722;SDS011;12042;52.136;5.584;2022-08-11T17:43:44;1.35;;;1.25;;
23722;SDS011;12042;52.136;5.584;2022-08-11T17:46:30;1.48;;;1.10;;
23722;SDS011;12042;52.136;5.584;2022-08-11T17:49:16;1.60;;;1.30;;
23722;SDS011;12042;52.136;5.584;2022-08-11T17:51:44;1.85;;;1.10;;
23722;SDS011;12042;52.136;5.584;2022-08-11T17:54:30;2.40;;;1.15;;
23722;SDS011;12042;52.136;5.584;2022-08-11T17:57:18;1.45;;;1.17;;
23722;SDS011;12042;52.136;5.584;2022-08-11T18:00:04;2.25;;;1.08;;
23722;SDS011;12042;52.136;5.584;2022-08-11T18:02:35;4.18;;;1.00;;
23722;SDS011;12042;52.136;5.584;2022-08-11T18:05:27;3.20;;;1.10;;
23722;SDS011;12042;52.136;5.584;2022-08-11T18:07:55;2.25;;;1.10;;
23722;SDS011;12042;52.136;5.584;2022-08-11T18:10:41;3.42;;;1.10;;
23722;SDS011;12042;52.136;5.584;2022-08-11T18:13:27;4.40;;;0.98;;
23722;SDS011;12042;52.136;5.584;2022-08-11T18:16:13;2.60;;;1.10;;
23722;SDS011;12042;52.136;5.584;2022-08-11T18:18:59;0.98;;;0.98;;
23722;SDS011;12042;52.136;5.584;2022-08-11T18:21:44;2.28;;;1.20;;
23722;SDS011;12042;52.136;5.584;2022-08-11T18:24:36;2.15;;;1.02;;
23722;SDS011;12042;52.136;5.584;2022-08-11T18:27:23;3.22;;;1.00;;
23722;SDS011;12042;52.136;5.584;2022-08-11T18:30:10;1.80;;;1.10;;
23722;SDS011;12042;52.136;5.584;2022-08-11T18:32:57;2.30;;;1.10;;
23722;SDS011;12042;52.136;5.584;2022-08-11T18:35:45;2.88;;;1.30;;
23722;SDS011;12042;52.136;5.584;2022-08-11T18:38:35;1.05;;;0.80;;
23722;SDS011;12042;52.136;5.584;2022-08-11T18:41:21;1.13;;;1.13;;
23722;SDS011;12042;52.136;5.584;2022-08-11T18:44:07;2.90;;;1.02;;
23722;SDS011;12042;52.136;5.584;2022-08-11T18:46:55;2.30;;;1.10;;
23722;SDS011;12042;52.136;5.584;2022-08-11T18:49:41;1.05;;;1.05;;
23722;SDS011;12042;52.136;5.584;2022-08-11T18:52:28;2.15;;;1.30;;
23722;SDS011;12042;52.136;5.584;2022-08-11T18:55:16;1.73;;;1.40;;
23722;SDS011;12042;52.136;5.584;2022-08-11T18:58:03;1.02;;;0.93;;
23722;SDS011;12042;52.136;5.584;2022-08-11T19:00:50;1.00;;;1.00;;
23722;SDS011;12042;52.136;5.584;2022-08-11T19:03:39;1.20;;;1.10;;
23722;SDS011;12042;52.136;5.584;2022-08-11T19:06:24;2.05;;;0.88;;
23722;SDS011;12042;52.136;5.584;2022-08-11T19:09:12;2.28;;;1.10;;
23722;SDS011;12042;52.136;5.584;2022-08-11T19:11:59;0.90;;;0.90;;
23722;SDS011;12042;52.136;5.584;2022-08-11T19:14:44;1.02;;;1.02;;
23722;SDS011;12042;52.136;5.584;2022-08-11T19:17:30;5.53;;;1.10;;
23722;SDS011;12042;52.136;5.584;2022-08-11T19:20:18;2.20;;;1.00;;
23722;SDS011;12042;52.136;5.584;2022-08-11T19:23:05;2.28;;;1.33;;
23722;SDS011;12042;52.136;5.584;2022-08-11T19:25:51;3.33;;;1.20;;
23722;SDS011;12042;52.136;5.584;2022-08-11T19:28:36;1.35;;;1.20;;
23722;SDS011;12042;52.136;5.584;2022-08-11T19:31:23;1.60;;;1.08;;
23722;SDS011;12042;52.136;5.584;2022-08-11T19:34:08;1.30;;;1.00;;
23722;SDS011;12042;52.136;5.584;2022-08-11T19:36:53;3.45;;;1.20;;
23722;SDS011;12042;52.136;5.584;2022-08-11T19:39:39;1.05;;;1.05;;
23722;SDS011;12042;52.136;5.584;2022-08-11T19:42:24;1.23;;;0.88;;
23722;SDS011;12042;52.136;5.584;2022-08-11T19:45:10;5.43;;;1.40;;
23722;SDS011;12042;52.136;5.584;2022-08-11T19:47:54;3.33;;;1.20;;
23722;SDS011;12042;52.136;5.584;2022-08-11T19:50:38;3.35;;;1.30;;
23722;SDS011;12042;52.136;5.584;2022-08-11T19:53:24;1.92;;;1.40;;
23722;SDS011;12042;52.136;5.584;2022-08-11T19:56:10;1.35;;;1.25;;
23722;SDS011;12042;52.136;5.584;2022-08-11T19:58:55;1.35;;;1.20;;
23722;SDS011;12042;52.136;5.584;2022-08-11T20:01:41;2.83;;;1.35;;
23722;SDS011;12042;52.136;5.584;2022-08-11T20:04:25;1.40;;;1.05;;
23722;SDS011;12042;52.136;5.584;2022-08-11T20:07:09;2.20;;;1.73;;
23722;SDS011;12042;52.136;5.584;2022-08-11T20:09:55;3.45;;;1.30;;
23722;SDS011;12042;52.136;5.584;2022-08-11T20:12:44;2.13;;;1.13;;
23722;SDS011;12042;52.136;5.584;2022-08-11T20:15:29;2.95;;;1.20;;
23722;SDS011;12042;52.136;5.584;2022-08-11T20:18:14;2.88;;;1.10;;
23722;SDS011;12042;52.136;5.584;2022-08-11T20:20:59;1.25;;;1.15;;
23722;SDS011;12042;52.136;5.584;2022-08-11T20:23:45;2.17;;;1.10;;
23722;SDS011;12042;52.136;5.584;2022-08-11T20:26:31;3.45;;;1.20;;
23722;SDS011;12042;52.136;5.584;2022-08-11T20:29:17;2.10;;;1.30;;
23722;SDS011;12042;52.136;5.584;2022-08-11T20:32:03;1.20;;;1.15;;
23722;SDS011;12042;52.136;5.584;2022-08-11T20:34:49;2.55;;;1.63;;
23722;SDS011;12042;52.136;5.584;2022-08-11T20:37:35;2.50;;;1.17;;
23722;SDS011;12042;52.136;5.584;2022-08-11T20:40:22;1.67;;;1.10;;
23722;SDS011;12042;52.136;5.584;2022-08-11T20:43:11;1.95;;;1.20;;
23722;SDS011;12042;52.136;5.584;2022-08-11T20:45:58;1.27;;;1.17;;
23722;SDS011;12042;52.136;5.584;2022-08-11T20:48:45;1.35;;;1.27;;
23722;SDS011;12042;52.136;5.584;2022-08-11T20:51:30;1.33;;;1.23;;
